createdAt,value
2018-09-06T00:00:13.010Z,101030.55
2018-09-06T00:05:17.848Z,101020.85
2018-09-06T00:10:21.738Z,101013.91
2018-09-06T00:15:25.347Z,101020.08
2018-09-06T00:20:28.458Z,101014.10
2018-09-06T00:25:31.831Z,101006.93
2018-09-06T00:30:34.871Z,101006.17
2018-09-06T00:35:37.959Z,101000.20
2018-09-06T00:40:41.065Z,101000.22
2018-09-06T00:45:45.561Z,101007.06
2018-09-06T00:50:49.026Z,100993.03
2018-09-06T00:55:52.419Z,100996.28
2018-09-06T01:00:55.530Z,100989.34
2018-09-06T01:05:58.513Z,100988.89
2018-09-06T01:11:01.602Z,100980.94
2018-09-06T01:16:05.089Z,100975.45
2018-09-06T01:21:08.161Z,100972.03
2018-09-06T01:26:11.305Z,100964.59
2018-09-06T01:31:15.976Z,100963.61
2018-09-06T01:36:24.850Z,100961.47
2018-09-06T01:41:27.862Z,100954.19
2018-09-06T01:46:30.926Z,100952.47
2018-09-06T01:51:34.534Z,100945.73
2018-09-06T01:56:37.717Z,100944.92
2018-09-06T02:01:40.966Z,100943.89
2018-09-06T02:06:45.126Z,100941.34
2018-09-06T02:11:48.416Z,100934.95
2018-09-06T02:16:51.693Z,100930.70
2018-09-06T02:21:54.809Z,100920.66
2018-09-06T02:26:57.838Z,100925.56
2018-09-06T02:32:00.853Z,100928.88
2018-09-06T02:37:03.865Z,100925.77
2018-09-06T02:42:06.886Z,100921.99
2018-09-06T02:47:09.880Z,100913.94
2018-09-06T02:52:16.980Z,100903.84
2018-09-06T02:57:20.270Z,100908.28
2018-09-06T03:02:24.121Z,100898.34
2018-09-06T03:07:27.194Z,100897.66
2018-09-06T03:12:30.621Z,100889.15
2018-09-06T03:17:33.621Z,100886.33
2018-09-06T03:22:36.661Z,100889.81
2018-09-06T03:27:39.646Z,100884.34
2018-09-06T03:32:43.398Z,100885.66
2018-09-06T03:37:47.125Z,100884.59
2018-09-06T03:42:50.440Z,100884.11
2018-09-06T03:47:53.541Z,100875.05
2018-09-06T03:52:56.528Z,100861.23
2018-09-06T03:57:59.702Z,100859.72
2018-09-06T04:03:02.687Z,100857.41
2018-09-06T04:08:05.745Z,100863.36
2018-09-06T04:13:08.946Z,100865.62
2018-09-06T04:18:12.837Z,100853.41
2018-09-06T04:23:18.260Z,100853.05
2018-09-06T04:28:21.747Z,100853.67
2018-09-06T04:33:25.330Z,100852.25
2018-09-06T04:38:29.238Z,100846.39
2018-09-06T04:43:32.436Z,100844.20
2018-09-06T04:48:35.750Z,100844.20
2018-09-06T04:53:39.255Z,100843.74
2018-09-06T04:58:42.477Z,100851.39
2018-09-06T05:03:45.489Z,100853.21
2018-09-06T05:08:48.541Z,100852.53
2018-09-06T05:13:51.628Z,100856.52
2018-09-06T05:18:55.725Z,100853.23
2018-09-06T05:24:00.924Z,100855.07
2018-09-06T05:29:04.821Z,100851.16
2018-09-06T05:34:07.842Z,100842.14
2018-09-06T05:39:12.370Z,100847.05
2018-09-06T05:44:15.375Z,100841.56
2018-09-06T05:49:19.312Z,100842.62
2018-09-06T05:54:25.174Z,100838.00
2018-09-06T05:59:33.871Z,100836.95
2018-09-06T06:04:38.026Z,100834.56
2018-09-06T06:09:41.232Z,100836.63
2018-09-06T06:14:44.225Z,100832.16
2018-09-06T06:19:47.483Z,100836.94
2018-09-06T06:24:50.507Z,100828.86
2018-09-06T06:29:53.625Z,100822.36
2018-09-06T06:34:58.679Z,100809.64
2018-09-06T06:40:02.793Z,100819.11
2018-09-06T06:45:06.207Z,100815.25
2018-09-06T06:50:09.569Z,100816.34
2018-09-06T06:55:12.626Z,100815.09
2018-09-06T07:00:17.090Z,100808.99
2018-09-06T07:05:22.386Z,100809.06
2018-09-06T07:10:30.195Z,100802.05
2018-09-06T07:15:34.706Z,100809.48
2018-09-06T07:20:39.369Z,100810.50
2018-09-06T07:25:42.409Z,100809.35
2018-09-06T07:30:45.633Z,100802.39
2018-09-06T07:35:48.669Z,100802.43
2018-09-06T07:40:51.703Z,100804.86
2018-09-06T07:45:56.965Z,100799.72
2018-09-06T07:51:04.193Z,100801.52
2018-09-06T07:56:09.139Z,100792.25
2018-09-06T08:01:12.149Z,100790.06
2018-09-06T08:06:15.165Z,100793.91
2018-09-06T08:11:18.230Z,100782.97
2018-09-06T08:16:21.302Z,100792.20
2018-09-06T08:21:29.111Z,100796.22
2018-09-06T08:26:35.495Z,100791.52
2018-09-06T08:31:39.396Z,100796.53
2018-09-06T08:36:42.541Z,100789.54
2018-09-06T08:41:45.746Z,100786.33
2018-09-06T08:46:49.009Z,100782.67
2018-09-06T08:51:56.768Z,100784.59
2018-09-06T08:57:02.585Z,100782.59
2018-09-06T09:02:14.205Z,100779.55
2018-09-06T09:07:17.333Z,100774.59
2018-09-06T09:12:20.841Z,100765.16
2018-09-06T09:17:26.168Z,100761.36
2018-09-06T09:22:32.467Z,100763.19
2018-09-06T09:27:37.109Z,100757.50
2018-09-06T09:32:40.255Z,100753.70
2018-09-06T09:37:43.410Z,100746.72
2018-09-06T09:42:46.445Z,100730.03
2018-09-06T09:47:50.087Z,100728.27
2018-09-06T09:52:55.286Z,100728.31
2018-09-06T09:58:02.362Z,100726.81
2018-09-06T10:03:13.897Z,100707.36
2018-09-06T10:08:25.849Z,100706.82
2018-09-06T10:13:31.595Z,100690.36
2018-09-06T10:18:36.456Z,100681.98
2018-09-06T10:23:39.682Z,100683.73
2018-09-06T10:28:42.727Z,100680.09
2018-09-06T10:33:45.792Z,100682.06
2018-09-06T10:38:49.803Z,100682.52
2018-09-06T10:43:53.996Z,100672.24
2018-09-06T10:49:03.976Z,100662.48
2018-09-06T10:54:08.218Z,100663.67
2018-09-06T10:59:11.447Z,100651.86
2018-09-06T11:04:14.593Z,100650.59
2018-09-06T11:09:17.798Z,100647.62
2018-09-06T11:14:21.675Z,100644.45
2018-09-06T11:19:25.232Z,100642.96
2018-09-06T11:24:30.724Z,100640.24
2018-09-06T11:29:34.916Z,100636.30
2018-09-06T11:34:38.903Z,100625.89
2018-09-06T11:39:42.334Z,100619.20
2018-09-06T11:44:47.027Z,100624.22
2018-09-06T11:49:50.747Z,100617.98
2018-09-06T11:54:54.271Z,100614.10
2018-09-06T11:59:57.887Z,100607.77
2018-09-06T12:05:01.900Z,100606.16
2018-09-06T12:10:05.500Z,100601.56
2018-09-06T12:15:08.908Z,100604.74
2018-09-06T12:20:12.139Z,100610.23
2018-09-06T12:25:15.621Z,100604.89
2018-09-06T12:30:20.071Z,100611.50
2018-09-06T12:35:23.433Z,100607.13
2018-09-06T12:40:26.742Z,100614.19
2018-09-06T12:45:37.204Z,100616.78
2018-09-06T12:50:40.361Z,100616.18
2018-09-06T12:55:43.406Z,100625.55
2018-09-06T13:00:46.534Z,100621.71
2018-09-06T13:05:51.004Z,100639.56
2018-09-06T13:10:54.671Z,100639.50
2018-09-06T13:15:58.975Z,100647.11
2018-09-06T13:21:03.169Z,100647.66
2018-09-06T13:26:07.273Z,100645.36
2018-09-06T13:31:10.782Z,100651.02
2018-09-06T13:36:13.830Z,100653.44
2018-09-06T13:41:16.949Z,100659.98
2018-09-06T13:46:20.019Z,100661.80
2018-09-06T13:51:23.065Z,100656.89
2018-09-06T13:56:37.854Z,100653.25
2018-09-06T14:01:42.461Z,100639.86
2018-09-06T14:06:45.498Z,100636.06
2018-09-06T14:11:50.155Z,100632.94
2018-09-06T14:16:54.268Z,100627.16
2018-09-06T14:21:57.370Z,100637.34
2018-09-06T14:27:00.409Z,100630.27
2018-09-06T14:32:03.876Z,100628.44
2018-09-06T14:37:06.987Z,100621.30
2018-09-06T14:42:14.874Z,100622.48
2018-09-06T14:47:23.167Z,100616.21
2018-09-06T14:52:26.262Z,100622.41
2018-09-06T14:57:29.291Z,100608.48
2018-09-06T15:02:32.418Z,100610.08
2018-09-06T15:07:35.430Z,100614.75
2018-09-06T15:12:38.545Z,100610.30
2018-09-06T15:17:41.579Z,100611.84
2018-09-06T15:22:49.001Z,100612.11
2018-09-06T15:27:53.854Z,100602.19
2018-09-06T15:32:59.315Z,100594.08
2018-09-06T15:38:02.397Z,100592.27
2018-09-06T15:43:05.502Z,100596.61
2018-09-06T15:48:08.594Z,100588.99
2018-09-06T15:53:11.693Z,100576.27
2018-09-06T15:58:17.860Z,100573.45
2018-09-06T16:03:23.266Z,100570.06
2018-09-06T16:08:26.358Z,100575.05
2018-09-06T16:13:29.587Z,100571.52
2018-09-06T16:18:32.662Z,100563.48
2018-09-06T16:23:35.668Z,100555.72
2018-09-06T16:28:38.767Z,100550.97
2018-09-06T16:33:43.230Z,100553.94
2018-09-06T16:38:50.349Z,100556.20
2018-09-06T16:43:54.550Z,100571.58
2018-09-06T16:48:57.554Z,100567.45
2018-09-06T16:54:00.579Z,100565.78
2018-09-06T16:59:03.649Z,100557.90
2018-09-06T17:04:06.723Z,100554.72
2018-09-06T17:09:09.804Z,100553.55
2018-09-06T17:14:14.225Z,100555.89
2018-09-06T17:19:19.746Z,100563.38
2018-09-06T17:24:23.558Z,100573.78
2018-09-06T17:29:28.309Z,100579.09
2018-09-06T17:34:32.393Z,100586.27
2018-09-06T17:39:35.446Z,100586.52
2018-09-06T17:44:38.785Z,100583.28
2018-09-06T17:49:41.956Z,100587.14
2018-09-06T17:54:46.871Z,100592.34
2018-09-06T17:59:52.535Z,100591.82
2018-09-06T18:04:57.217Z,100589.25
2018-09-06T18:10:01.563Z,100583.41
2018-09-06T18:15:05.085Z,100580.78
2018-09-06T18:20:08.203Z,100596.03
2018-09-06T18:25:11.346Z,100586.45
2018-09-06T18:30:18.110Z,100587.79
2018-09-06T18:35:22.864Z,100599.16
2018-09-06T18:40:27.735Z,100580.41
2018-09-06T18:45:31.878Z,100579.94
2018-09-06T18:50:35.630Z,100581.16
2018-09-06T18:55:39.921Z,100578.58
2018-09-06T19:00:45.303Z,100586.68
2018-09-06T19:05:49.387Z,100586.12
2018-09-06T19:10:54.329Z,100585.74
2018-09-06T19:15:57.333Z,100579.00
2018-09-06T19:21:00.352Z,100585.63
2018-09-06T19:26:03.500Z,100576.20
2018-09-06T19:31:10.398Z,100573.78
2018-09-06T19:36:18.187Z,100576.33
2018-09-06T19:41:22.121Z,100568.77
2018-09-06T19:46:25.130Z,100562.17
2018-09-06T19:51:28.146Z,100564.59
2018-09-06T19:56:31.179Z,100557.69
2018-09-06T20:01:35.043Z,100568.53
2018-09-06T20:06:40.969Z,100573.73
2018-09-06T20:11:45.737Z,100552.84
2018-09-06T20:16:48.927Z,100564.22
2018-09-06T20:21:52.231Z,100567.33
2018-09-06T20:26:55.237Z,100561.95
2018-09-06T20:31:58.247Z,100559.54
2018-09-06T20:37:02.482Z,100557.22
2018-09-06T20:42:07.250Z,100557.81
2018-09-06T20:47:15.872Z,100563.27
2018-09-06T20:52:19.197Z,100568.00
2018-09-06T20:57:23.364Z,100568.58
2018-09-06T21:02:26.528Z,100563.77
2018-09-06T21:07:29.983Z,100573.80
2018-09-06T21:12:33.205Z,100576.10
2018-09-06T21:17:36.160Z,100576.44
2018-09-06T21:22:39.729Z,100576.91
2018-09-06T21:27:43.890Z,100576.67
2018-09-06T21:32:47.593Z,100579.08
2018-09-06T21:37:51.593Z,100576.02
2018-09-06T21:42:54.576Z,100572.61
2018-09-06T21:47:57.562Z,100577.61
2018-09-06T21:53:01.229Z,100577.23
2018-09-06T21:58:04.946Z,100573.16
2018-09-06T22:03:13.747Z,100569.04
2018-09-06T22:08:17.580Z,100565.17
2018-09-06T22:13:21.334Z,100562.50
2018-09-06T22:18:24.318Z,100562.29
2018-09-06T22:23:27.316Z,100552.86
2018-09-06T22:28:30.757Z,100553.70
2018-09-06T22:33:34.226Z,100559.43
2018-09-06T22:38:37.236Z,100562.52
2018-09-06T22:43:45.140Z,100560.80
2018-09-06T22:48:48.752Z,100560.96
2018-09-06T22:53:51.752Z,100564.09
2018-09-06T22:58:54.756Z,100560.58
2018-09-06T23:03:57.775Z,100542.92
2018-09-06T23:09:01.321Z,100535.03
2018-09-06T23:14:04.745Z,100531.55
2018-09-06T23:19:08.198Z,100530.81
2018-09-06T23:24:14.127Z,100526.00
2018-09-06T23:29:17.750Z,100526.47
2018-09-06T23:34:20.719Z,100521.87
2018-09-06T23:39:23.738Z,100530.72
2018-09-06T23:44:26.776Z,100528.19
2018-09-06T23:49:29.829Z,100532.27
2018-09-06T23:54:33.696Z,100530.00
2018-09-06T23:59:36.752Z,100537.00
